This is the latest recevied weather packets stored in our database for station/object AI4Y. If no packets are shown the sender has not sent any weather packets the latest 10 day(s).
| Time | Temp. | Humidity | Pressure | Rain* | Wind** | Luminosity | Snow |
|---|---|---|---|---|---|---|---|
| 1777457415 | 14.44° C | 99% | 1014.7 hPa | 0 mm | - | 0 W/m² | - |
| 1777456216 | 14.44° C | 100% | 1013.4 hPa | 0 mm | - | 0 W/m² | - |
| 1777455016 | 14.44° C | 99% | 1013.8 hPa | 0 mm | - | 0 W/m² | - |
| 1777452657 | 14.44° C | 100% | 1014.4 hPa | 0 mm | - | 0 W/m² | - |
| 1777450818 | 14.44° C | 100% | 1014.9 hPa | 0 mm | - | 0 W/m² | - |
| 1777447818 | 14.44° C | 99% | 1014.7 hPa | 0 mm | - | 0 W/m² | - |
| 1777442416 | 15° C | 97% | 1016.2 hPa | 0 mm | - | 0 W/m² | - |
| 1777439416 | 15° C | 95% | 1015.7 hPa | 0 mm | - | 0 W/m² | - |
| 1777437617 | 15° C | 95% | 1016.5 hPa | 0 mm | - | 0 W/m² | - |
| 1777432238 | 15° C | 96% | 1017.9 hPa | 0 mm | - | 0 W/m² | - |
| 1777429816 | 15.56° C | 93% | 1018.5 hPa | 0 mm | - | 0 W/m² | - |
| 1777428016 | 15.56° C | 93% | 1018.2 hPa | 0 mm | - | 0 W/m² | - |
| 1777426217 | 15.56° C | 92% | 1017.1 hPa | 0 mm | - | 0 W/m² | - |
| 1777423818 | 16.11° C | 91% | 1016.8 hPa | 0 mm | - | 0 W/m² | - |
| 1777422638 | 16.11° C | 90% | 1016.7 hPa | 0 mm | - | 0 W/m² | - |
| 1777422018 | 16.11° C | 89% | 1016.5 hPa | 0 mm | - | 1 W/m² | - |
| 1777402817 | 21.67° C | 72% | 1017.3 hPa | 0 mm | - | 918 W/m² | - |
| 1777399818 | 21.11° C | 72% | 1017.7 hPa | 0 mm | - | 1041 W/m² | - |
| 1777396218 | 18.33° C | 81% | 1018.7 hPa | 0 mm | - | 375 W/m² | - |
| 1777394439 | 18.89° C | 81% | 1019 hPa | 0 mm | - | 424 W/m² | - |
| 1777393816 | 18.89° C | 82% | 1018.9 hPa | 0 mm | - | 810 W/m² | - |
| 1777392616 | 17.22° C | 86% | 1019.1 hPa | 0 mm | - | 657 W/m² | - |
| 1777391416 | 15.56° C | 93% | 1019.1 hPa | 0 mm | - | 500 W/m² | - |
| 1777389617 | 13.89° C | 97% | 1018.9 hPa | 0 mm | - | 328 W/m² | - |
| 1777388417 | 12.78° C | 99% | 1019.3 hPa | 0 mm | - | 197 W/m² | - |
* Rain latest hour (hover to see other rain measurements)
** Current wind speed in m/s (hover to see current wind gust speed)